createdAt,value
2019-05-17T00:00:29.404Z,25.90
2019-05-17T00:02:59.310Z,29.00
2019-05-17T00:05:29.367Z,31.43
2019-05-17T00:07:59.376Z,29.17
2019-05-17T00:10:29.593Z,30.80
2019-05-17T00:12:59.562Z,30.37
2019-05-17T00:15:29.496Z,28.43
2019-05-17T00:17:59.436Z,26.47
2019-05-17T00:20:29.327Z,28.53
2019-05-17T00:22:59.285Z,29.43
2019-05-17T00:25:29.289Z,31.83
2019-05-17T00:27:59.206Z,29.03
2019-05-17T00:30:29.259Z,30.43
2019-05-17T00:32:59.207Z,30.70
2019-05-17T00:35:29.087Z,25.20
2019-05-17T00:37:58.978Z,27.77
2019-05-17T00:40:28.895Z,27.37
2019-05-17T00:42:58.841Z,30.57
2019-05-17T00:45:28.777Z,30.70
2019-05-17T00:47:58.691Z,28.60
2019-05-17T00:50:28.645Z,27.27
2019-05-17T00:52:58.555Z,29.03
2019-05-17T00:55:28.494Z,27.50
2019-05-17T00:57:58.454Z,28.33
2019-05-17T01:00:28.548Z,28.37
2019-05-17T01:02:58.824Z,27.67
2019-05-17T01:05:28.824Z,28.47
2019-05-17T01:07:59.012Z,28.77
2019-05-17T01:10:29.355Z,29.40
2019-05-17T01:12:59.264Z,32.50
2019-05-17T01:15:29.212Z,29.33
2019-05-17T01:17:59.125Z,28.33
2019-05-17T01:20:29.034Z,25.73
2019-05-17T01:22:58.983Z,26.33
2019-05-17T01:25:28.981Z,29.13
2019-05-17T01:27:59.014Z,27.83
2019-05-17T01:30:28.989Z,42.03
2019-05-17T01:32:59.094Z,30.87
2019-05-17T01:35:29.128Z,32.80
2019-05-17T01:37:59.052Z,31.20
2019-05-17T01:40:28.939Z,32.70
2019-05-17T01:42:58.896Z,208.23
2019-05-17T01:45:28.817Z,38.57
2019-05-17T01:47:58.782Z,35.90
2019-05-17T01:50:28.657Z,32.47
2019-05-17T01:52:58.680Z,29.37
2019-05-17T01:55:28.657Z,25.63
2019-05-17T01:57:58.571Z,24.70
2019-05-17T02:00:28.795Z,30.13
2019-05-17T02:02:58.778Z,29.27
2019-05-17T02:05:28.743Z,28.83
2019-05-17T02:07:58.947Z,27.37
2019-05-17T02:10:28.846Z,24.93
2019-05-17T02:12:58.748Z,22.57
2019-05-17T02:15:28.754Z,23.43
2019-05-17T02:17:58.732Z,22.10
2019-05-17T02:20:28.652Z,21.67
2019-05-17T02:22:59.079Z,22.37
2019-05-17T02:25:28.987Z,26.77
2019-05-17T02:27:58.920Z,27.67
2019-05-17T02:30:28.879Z,25.30
2019-05-17T02:33:03.433Z,25.67
2019-05-17T02:35:33.667Z,25.37
2019-05-17T02:38:03.535Z,26.50
2019-05-17T02:40:34.387Z,28.43
2019-05-17T02:43:04.699Z,36.57
2019-05-17T02:45:34.739Z,30.47
2019-05-17T02:48:04.637Z,27.17
2019-05-17T02:50:34.641Z,26.33
2019-05-17T02:53:04.996Z,26.40
2019-05-17T02:55:34.910Z,24.30
2019-05-17T02:58:04.943Z,29.90
2019-05-17T03:00:35.264Z,28.93
2019-05-17T03:03:05.321Z,30.73
2019-05-17T03:05:35.388Z,31.07
2019-05-17T03:08:05.341Z,31.77
2019-05-17T03:10:35.346Z,34.23
2019-05-17T03:13:05.411Z,32.10
2019-05-17T03:15:35.345Z,28.57
2019-05-17T03:18:05.384Z,29.97
2019-05-17T03:20:35.310Z,28.07
2019-05-17T03:23:05.393Z,28.47
2019-05-17T03:25:35.345Z,26.20
2019-05-17T03:28:05.411Z,25.10
2019-05-17T03:30:37.231Z,28.50
2019-05-17T03:33:08.345Z,30.17
2019-05-17T03:35:39.126Z,30.03
2019-05-17T03:38:13.893Z,31.27
2019-05-17T03:41:13.874Z,30.40
2019-05-17T03:43:14.171Z,31.53
2019-05-17T03:45:44.189Z,29.43
2019-05-17T03:48:14.131Z,31.33
2019-05-17T03:50:44.104Z,28.60
2019-05-17T03:53:14.045Z,29.07
2019-05-17T03:55:43.940Z,32.73
2019-05-17T03:58:14.032Z,24.43
2019-05-17T04:00:43.924Z,25.47
2019-05-17T04:03:13.894Z,26.00
2019-05-17T04:05:43.818Z,27.07
2019-05-17T04:08:14.148Z,26.23
2019-05-17T04:10:44.224Z,26.77
2019-05-17T04:13:14.117Z,26.47
2019-05-17T04:15:44.004Z,28.17
2019-05-17T04:18:14.060Z,28.70
2019-05-17T04:20:44.119Z,26.93
2019-05-17T04:23:14.192Z,29.10
2019-05-17T04:25:44.222Z,27.73
2019-05-17T04:28:14.141Z,28.53
2019-05-17T04:30:44.181Z,27.97
2019-05-17T04:33:14.158Z,27.13
2019-05-17T04:35:44.106Z,29.93
2019-05-17T04:38:14.191Z,28.60
2019-05-17T04:40:44.067Z,30.50
2019-05-17T04:43:14.065Z,30.33
2019-05-17T04:45:43.982Z,30.33
2019-05-17T04:48:13.935Z,32.93
2019-05-17T04:50:44.004Z,30.03
2019-05-17T04:53:14.064Z,28.53
2019-05-17T04:55:43.963Z,30.43
2019-05-17T04:58:14.064Z,28.73
2019-05-17T05:00:44.084Z,33.53
2019-05-17T05:03:14.030Z,33.43
2019-05-17T05:05:43.948Z,36.13
2019-05-17T05:08:14.049Z,33.93
2019-05-17T05:10:43.929Z,45.53
2019-05-17T05:13:13.872Z,41.37
2019-05-17T05:15:44.990Z,43.37
2019-05-17T05:18:15.241Z,40.53
2019-05-17T05:20:45.242Z,41.00
2019-05-17T05:23:15.128Z,40.37
2019-05-17T05:25:45.044Z,43.17
2019-05-17T05:28:15.241Z,44.17
2019-05-17T05:30:45.583Z,44.47
2019-05-17T05:33:15.584Z,42.27
2019-05-17T05:35:45.483Z,41.50
2019-05-17T05:38:15.385Z,47.33
2019-05-17T05:40:45.373Z,51.37
2019-05-17T05:43:15.330Z,48.63
2019-05-17T05:45:45.218Z,46.43
2019-05-17T05:48:15.285Z,43.87
2019-05-17T05:50:45.170Z,43.57
2019-05-17T05:53:15.372Z,41.77
2019-05-17T05:55:45.508Z,42.13
2019-05-17T05:58:15.470Z,43.23
2019-05-17T06:00:45.501Z,42.43
2019-05-17T06:03:15.652Z,39.10
2019-05-17T06:05:45.751Z,37.57
2019-05-17T06:08:15.849Z,40.77
2019-05-17T06:10:46.856Z,39.33
2019-05-17T06:13:16.761Z,37.40
2019-05-17T06:15:47.189Z,41.17
2019-05-17T06:18:17.191Z,39.40
2019-05-17T06:20:47.571Z,34.57
2019-05-17T06:23:18.004Z,35.73
2019-05-17T06:25:52.186Z,35.07
2019-05-17T06:28:23.818Z,33.03
2019-05-17T06:30:54.432Z,28.83
2019-05-17T06:33:30.726Z,33.60
2019-05-17T06:35:57.318Z,29.07
2019-05-17T06:38:27.250Z,30.20
2019-05-17T06:40:57.194Z,27.63
2019-05-17T06:43:27.288Z,29.03
2019-05-17T06:45:57.283Z,29.67
2019-05-17T06:48:27.266Z,29.43
2019-05-17T06:50:57.226Z,30.17
2019-05-17T06:53:27.167Z,28.15
2019-05-17T06:55:57.398Z,27.37
2019-05-17T06:58:31.538Z,27.07
2019-05-17T07:01:01.885Z,22.83
2019-05-17T07:03:31.820Z,25.03
2019-05-17T07:06:03.501Z,21.77
2019-05-17T07:08:33.577Z,25.30
2019-05-17T07:11:03.656Z,25.80
2019-05-17T07:13:33.794Z,26.20
2019-05-17T07:16:03.852Z,26.70
2019-05-17T07:18:33.847Z,25.67
2019-05-17T07:21:03.776Z,27.03
2019-05-17T07:23:34.181Z,25.23
2019-05-17T07:26:04.090Z,25.97
2019-05-17T07:28:34.079Z,28.90
2019-05-17T07:31:04.134Z,27.83
2019-05-17T07:33:34.135Z,25.87
2019-05-17T07:36:04.264Z,26.47
2019-05-17T07:38:34.588Z,23.73
2019-05-17T07:41:04.510Z,25.80
2019-05-17T07:43:34.585Z,27.70
2019-05-17T07:46:04.585Z,23.83
2019-05-17T07:48:34.602Z,22.07
2019-05-17T07:51:04.664Z,19.93
2019-05-17T07:53:34.670Z,23.60
2019-05-17T07:56:04.634Z,23.63
2019-05-17T07:58:34.578Z,24.10
2019-05-17T08:01:04.558Z,22.00
2019-05-17T08:03:34.543Z,22.70
2019-05-17T08:06:04.412Z,21.20
2019-05-17T08:08:34.448Z,23.50
2019-05-17T08:11:04.452Z,21.90
2019-05-17T08:13:34.435Z,23.13
2019-05-17T08:16:04.506Z,21.47
2019-05-17T08:18:34.531Z,21.77
2019-05-17T08:21:04.441Z,21.00
2019-05-17T08:23:34.317Z,23.50
2019-05-17T08:26:04.728Z,21.40
2019-05-17T08:28:34.662Z,20.40
2019-05-17T08:31:04.608Z,19.93
2019-05-17T08:33:34.495Z,21.00
2019-05-17T08:36:04.461Z,20.03
2019-05-17T08:38:34.451Z,20.17
2019-05-17T08:41:04.921Z,21.87
2019-05-17T08:43:42.652Z,20.67
2019-05-17T08:46:06.423Z,21.00
2019-05-17T08:48:36.343Z,17.70
2019-05-17T08:51:06.652Z,18.03
2019-05-17T08:53:36.564Z,19.00
2019-05-17T08:56:06.443Z,16.20
2019-05-17T08:58:36.437Z,17.47
2019-05-17T09:01:06.325Z,15.90
2019-05-17T09:03:36.547Z,16.37
2019-05-17T09:06:06.532Z,19.30
2019-05-17T09:08:36.854Z,17.23
2019-05-17T09:11:09.722Z,16.17
2019-05-17T09:13:41.255Z,15.17
2019-05-17T09:16:10.921Z,16.20
2019-05-17T09:18:41.154Z,16.30
2019-05-17T09:21:11.146Z,17.40
2019-05-17T09:23:41.116Z,16.53
2019-05-17T09:26:11.009Z,17.27
2019-05-17T09:28:41.163Z,18.13
2019-05-17T09:31:12.225Z,18.23
2019-05-17T09:33:43.051Z,17.50
2019-05-17T09:36:13.988Z,18.37
2019-05-17T09:38:43.843Z,16.73
2019-05-17T09:41:13.720Z,15.83
2019-05-17T09:43:43.937Z,13.40
2019-05-17T09:46:13.906Z,12.23
2019-05-17T09:48:46.852Z,12.07
2019-05-17T09:51:15.604Z,13.33
2019-05-17T09:53:45.985Z,11.77
2019-05-17T09:56:16.159Z,12.37
2019-05-17T09:58:46.297Z,12.50
2019-05-17T10:01:16.376Z,11.97
2019-05-17T10:03:46.470Z,12.93
2019-05-17T10:06:16.771Z,11.67
2019-05-17T10:08:46.877Z,11.23
2019-05-17T10:11:16.932Z,12.73
2019-05-17T10:13:47.030Z,12.23
2019-05-17T10:16:16.994Z,12.60
2019-05-17T10:18:46.906Z,14.37
2019-05-17T10:21:19.702Z,13.20
2019-05-17T10:23:49.672Z,12.33
2019-05-17T10:26:19.955Z,11.53
2019-05-17T10:28:51.637Z,14.00
2019-05-17T10:31:21.718Z,13.00
2019-05-17T10:33:51.618Z,12.67
2019-05-17T10:36:21.501Z,13.50
2019-05-17T10:38:51.461Z,12.50
2019-05-17T10:41:21.649Z,13.87
2019-05-17T10:43:51.648Z,12.27
2019-05-17T10:46:21.870Z,13.57
2019-05-17T10:48:51.834Z,12.67
2019-05-17T10:51:21.719Z,11.10
2019-05-17T10:53:51.718Z,11.77
2019-05-17T10:56:23.628Z,11.80
2019-05-17T10:58:53.610Z,10.53
2019-05-17T11:01:23.509Z,10.83
2019-05-17T11:03:53.392Z,11.97
2019-05-17T11:06:23.365Z,11.77
2019-05-17T11:08:53.438Z,11.07
2019-05-17T11:11:23.444Z,10.77
2019-05-17T11:13:53.335Z,9.47
2019-05-17T11:16:23.261Z,10.90
2019-05-17T11:18:53.423Z,10.70
2019-05-17T11:21:23.368Z,11.37
2019-05-17T11:23:53.301Z,11.80
2019-05-17T11:26:23.335Z,11.17
2019-05-17T11:28:53.283Z,10.13
2019-05-17T11:31:23.595Z,8.40
2019-05-17T11:33:53.606Z,10.03
2019-05-17T11:36:23.671Z,9.07
2019-05-17T11:38:54.058Z,8.17
2019-05-17T11:41:24.438Z,9.70
2019-05-17T11:43:54.662Z,9.53
2019-05-17T11:46:35.688Z,8.53
2019-05-17T11:48:56.797Z,9.47
2019-05-17T11:51:27.489Z,10.43
2019-05-17T11:53:57.858Z,10.30
2019-05-17T11:56:27.937Z,10.17
2019-05-17T11:58:57.824Z,10.20
2019-05-17T12:01:27.732Z,11.00
2019-05-17T12:03:57.623Z,9.60
2019-05-17T12:06:27.510Z,9.50
2019-05-17T12:08:57.375Z,8.93
2019-05-17T12:11:27.256Z,9.40
2019-05-17T12:13:57.181Z,10.23
2019-05-17T12:16:27.114Z,8.53
2019-05-17T12:18:57.000Z,7.33
2019-05-17T12:21:26.944Z,7.73
2019-05-17T12:23:56.916Z,8.37
2019-05-17T12:26:26.851Z,8.90
2019-05-17T12:28:57.119Z,9.13
2019-05-17T12:31:27.044Z,8.20
2019-05-17T12:33:57.038Z,9.50
2019-05-17T12:36:27.025Z,8.87
2019-05-17T12:38:57.199Z,8.53
2019-05-17T12:41:27.185Z,9.40
2019-05-17T12:43:57.172Z,8.90
2019-05-17T12:46:27.119Z,9.30
2019-05-17T12:48:57.248Z,8.43
2019-05-17T12:51:27.127Z,8.67
2019-05-17T12:53:56.999Z,8.93
2019-05-17T12:56:26.869Z,8.47
2019-05-17T12:58:56.924Z,9.30
2019-05-17T13:01:27.332Z,8.53
2019-05-17T13:03:57.212Z,8.70
2019-05-17T13:06:27.093Z,8.87
2019-05-17T13:08:57.009Z,9.13
2019-05-17T13:11:26.885Z,9.60
2019-05-17T13:13:56.756Z,8.57
2019-05-17T13:16:26.658Z,7.23
2019-05-17T13:18:57.163Z,9.40
2019-05-17T13:21:27.459Z,8.07
2019-05-17T13:23:57.452Z,8.33
2019-05-17T13:26:27.491Z,7.83
2019-05-17T13:28:57.385Z,8.27
2019-05-17T13:31:27.264Z,8.13
2019-05-17T13:33:57.279Z,8.17
2019-05-17T13:36:27.172Z,8.53
2019-05-17T13:38:57.158Z,8.90
2019-05-17T13:41:27.193Z,7.87
2019-05-17T13:43:57.150Z,8.67
2019-05-17T13:46:33.302Z,7.23
2019-05-17T13:48:58.622Z,7.97
2019-05-17T13:51:28.504Z,18.83
2019-05-17T13:53:59.010Z,7.87
2019-05-17T13:56:28.900Z,8.73
2019-05-17T13:58:58.795Z,7.73
2019-05-17T14:01:27.742Z,7.00
2019-05-17T14:03:57.772Z,6.73
2019-05-17T14:06:27.689Z,6.83
2019-05-17T14:08:57.737Z,7.43
2019-05-17T14:11:27.723Z,9.50
2019-05-17T14:13:57.953Z,7.60
2019-05-17T14:16:28.091Z,7.50
2019-05-17T14:18:58.013Z,7.97
2019-05-17T14:21:27.982Z,8.10
2019-05-17T14:23:57.976Z,9.30
2019-05-17T14:26:28.652Z,8.67
2019-05-17T14:28:59.253Z,7.00
2019-05-17T14:31:29.976Z,6.80
2019-05-17T14:33:59.915Z,7.03
2019-05-17T14:36:29.846Z,10.43
2019-05-17T14:38:59.782Z,7.40
2019-05-17T14:41:29.795Z,7.43
2019-05-17T14:43:59.893Z,7.20
2019-05-17T14:46:29.883Z,6.33
2019-05-17T14:48:59.839Z,6.50
2019-05-17T14:51:29.841Z,6.80
2019-05-17T14:53:59.793Z,7.20
2019-05-17T14:56:29.678Z,6.63
2019-05-17T14:58:59.635Z,6.50
2019-05-17T15:01:32.774Z,7.87
2019-05-17T15:04:01.325Z,7.23
2019-05-17T15:06:32.301Z,7.70
2019-05-17T15:09:02.643Z,6.70
2019-05-17T15:11:33.008Z,7.33
2019-05-17T15:14:03.274Z,7.03
2019-05-17T15:16:33.358Z,7.20
2019-05-17T15:19:03.265Z,6.83
2019-05-17T15:21:33.291Z,6.23
2019-05-17T15:24:03.526Z,6.93
2019-05-17T15:26:35.688Z,6.97
2019-05-17T15:29:12.801Z,6.60
2019-05-17T15:31:43.346Z,6.63
2019-05-17T15:34:13.447Z,6.37
2019-05-17T15:36:43.417Z,6.80
2019-05-17T15:39:13.925Z,6.90
2019-05-17T15:41:45.392Z,6.70
2019-05-17T15:44:15.815Z,6.70
2019-05-17T15:46:46.179Z,7.50
2019-05-17T15:49:16.713Z,7.47
2019-05-17T15:51:47.863Z,6.73
2019-05-17T15:54:18.548Z,5.87
2019-05-17T15:56:48.717Z,6.90
2019-05-17T15:59:19.037Z,8.37
2019-05-17T16:01:49.060Z,6.97
2019-05-17T16:04:19.481Z,6.50
2019-05-17T16:06:49.932Z,6.77
2019-05-17T16:09:23.151Z,7.20
2019-05-17T16:12:01.125Z,7.37
2019-05-17T16:14:35.007Z,6.40
2019-05-17T16:17:05.227Z,5.73
2019-05-17T16:19:37.022Z,6.60
2019-05-17T16:22:07.503Z,12.27
2019-05-17T16:24:37.591Z,6.70
2019-05-17T16:27:07.727Z,6.20
2019-05-17T16:29:37.729Z,6.67
2019-05-17T16:32:07.734Z,6.93
2019-05-17T16:34:37.704Z,6.30
2019-05-17T16:37:08.201Z,6.27
2019-05-17T16:39:38.148Z,5.60
2019-05-17T16:42:08.133Z,5.87
2019-05-17T16:44:38.255Z,5.57
2019-05-17T16:47:09.281Z,6.67
2019-05-17T16:49:39.498Z,6.03
2019-05-17T16:52:09.546Z,6.40
2019-05-17T16:54:39.542Z,5.00
2019-05-17T16:57:09.714Z,5.13
2019-05-17T16:59:39.704Z,5.63
2019-05-17T17:02:09.856Z,4.97
2019-05-17T17:04:39.788Z,5.30
2019-05-17T17:07:09.755Z,5.07
2019-05-17T17:09:39.738Z,5.33
2019-05-17T17:12:09.746Z,5.07
2019-05-17T17:14:39.911Z,5.17
2019-05-17T17:17:12.037Z,4.57
2019-05-17T17:19:41.580Z,5.87
2019-05-17T17:22:11.730Z,5.50
2019-05-17T17:24:41.636Z,5.10
2019-05-17T17:27:11.548Z,5.53
2019-05-17T17:29:41.562Z,5.90
2019-05-17T17:32:21.152Z,5.20
2019-05-17T17:34:43.223Z,5.70
2019-05-17T17:37:13.108Z,5.47
2019-05-17T17:39:43.009Z,5.33
2019-05-17T17:42:12.969Z,6.00
2019-05-17T17:44:42.970Z,5.73
2019-05-17T17:47:12.985Z,5.63
2019-05-17T17:49:42.964Z,6.73
2019-05-17T17:52:13.045Z,6.30
2019-05-17T17:54:43.012Z,6.37
2019-05-17T17:57:12.903Z,5.87
2019-05-17T17:59:42.897Z,6.63
2019-05-17T18:02:12.809Z,6.87
2019-05-17T18:04:42.715Z,7.13
2019-05-17T18:07:12.623Z,7.50
2019-05-17T18:09:42.640Z,7.47
2019-05-17T18:12:12.558Z,6.90
2019-05-17T18:14:42.576Z,8.03
2019-05-17T18:17:23.264Z,6.67
2019-05-17T18:20:03.452Z,7.83
2019-05-17T18:22:33.189Z,7.00
2019-05-17T18:25:03.186Z,8.57
2019-05-17T18:27:33.300Z,7.83
2019-05-17T18:30:03.434Z,7.80
2019-05-17T18:32:33.438Z,7.43
2019-05-17T18:35:03.613Z,7.23
2019-05-17T18:37:34.328Z,7.03
2019-05-17T18:40:04.731Z,7.17
2019-05-17T18:42:34.750Z,7.93
2019-05-17T18:45:04.989Z,8.57
2019-05-17T18:47:35.265Z,8.67
2019-05-17T18:50:05.650Z,9.03
2019-05-17T18:52:38.444Z,9.80
2019-05-17T18:55:09.030Z,8.40
2019-05-17T18:57:39.040Z,8.70
2019-05-17T19:00:11.481Z,9.90
2019-05-17T19:02:41.477Z,8.80
2019-05-17T19:05:11.808Z,10.80
2019-05-17T19:07:41.792Z,9.03
2019-05-17T19:10:12.833Z,9.47
2019-05-17T19:12:42.756Z,9.03
2019-05-17T19:15:14.193Z,10.23
2019-05-17T19:17:44.225Z,9.53
2019-05-17T19:20:15.228Z,9.10
2019-05-17T19:22:45.152Z,9.33
2019-05-17T19:25:15.776Z,9.50
2019-05-17T19:27:45.690Z,9.93
2019-05-17T19:30:16.847Z,10.63
2019-05-17T19:32:46.823Z,10.50
2019-05-17T19:35:17.569Z,14.60
2019-05-17T19:37:47.585Z,10.03
2019-05-17T19:40:17.846Z,9.07
2019-05-17T19:42:47.877Z,9.60
2019-05-17T19:45:18.766Z,9.80
2019-05-17T19:47:48.856Z,9.77
2019-05-17T19:50:19.415Z,9.30
2019-05-17T19:52:49.399Z,10.20
2019-05-17T19:55:19.570Z,10.20
2019-05-17T19:57:49.519Z,11.00
2019-05-17T20:00:20.157Z,10.77
2019-05-17T20:02:50.067Z,11.83
2019-05-17T20:05:20.685Z,12.23
2019-05-17T20:07:50.836Z,12.77
2019-05-17T20:10:22.899Z,12.13
2019-05-17T20:12:53.064Z,13.27
2019-05-17T20:15:34.036Z,13.43
2019-05-17T20:17:54.972Z,13.90
2019-05-17T20:20:25.365Z,13.93
2019-05-17T20:22:55.539Z,13.13
2019-05-17T20:25:25.539Z,12.80
2019-05-17T20:27:55.452Z,13.87
2019-05-17T20:30:25.416Z,14.53
2019-05-17T20:32:55.299Z,13.43
2019-05-17T20:35:25.209Z,12.13
2019-05-17T20:37:57.470Z,12.37
2019-05-17T20:40:27.428Z,13.30
2019-05-17T20:42:57.354Z,13.63
2019-05-17T20:45:33.372Z,14.43
2019-05-17T20:48:00.346Z,13.33
2019-05-17T20:50:30.685Z,14.07
2019-05-17T20:53:01.284Z,14.63
2019-05-17T20:55:31.319Z,13.87
2019-05-17T20:58:01.359Z,14.87
2019-05-17T21:00:31.388Z,12.83
2019-05-17T21:03:01.371Z,13.50
2019-05-17T21:05:31.236Z,13.60
2019-05-17T21:08:02.234Z,14.23
2019-05-17T21:10:33.189Z,13.03
2019-05-17T21:13:04.096Z,13.93
2019-05-17T21:15:47.000Z,13.60
2019-05-17T21:18:07.503Z,13.00
2019-05-17T21:20:37.680Z,12.67
2019-05-17T21:23:08.876Z,14.03
2019-05-17T21:25:39.333Z,13.80
2019-05-17T21:28:09.903Z,13.73
2019-05-17T21:30:40.140Z,12.53
2019-05-17T21:33:10.254Z,13.23
2019-05-17T21:35:42.319Z,13.17
2019-05-17T21:38:14.429Z,12.70
2019-05-17T21:40:44.759Z,13.43
2019-05-17T21:43:15.328Z,12.87
2019-05-17T21:45:45.985Z,13.03
2019-05-17T21:48:16.555Z,13.77
2019-05-17T21:50:46.532Z,14.83
2019-05-17T21:53:16.519Z,12.90
2019-05-17T21:55:46.511Z,14.13
2019-05-17T21:58:20.247Z,14.27
2019-05-17T22:01:26.968Z,12.80
2019-05-17T22:03:57.284Z,15.80
2019-05-17T22:06:27.441Z,18.30
2019-05-17T22:08:58.558Z,13.17
2019-05-17T22:11:28.434Z,14.87
2019-05-17T22:13:59.251Z,16.47
2019-05-17T22:16:31.704Z,16.63
2019-05-17T22:19:03.752Z,14.47
2019-05-17T22:21:33.869Z,15.10
2019-05-17T22:24:03.910Z,17.03
2019-05-17T22:26:33.891Z,18.10
2019-05-17T22:29:04.390Z,17.30
2019-05-17T22:31:35.197Z,16.30
2019-05-17T22:34:05.121Z,17.03
2019-05-17T22:36:36.135Z,16.83
2019-05-17T22:39:07.881Z,17.27
2019-05-17T22:41:37.818Z,16.23
2019-05-17T22:44:07.813Z,17.03
2019-05-17T22:46:37.912Z,15.80
2019-05-17T22:49:07.819Z,17.80
2019-05-17T22:51:37.869Z,20.30
2019-05-17T22:54:07.841Z,17.67
2019-05-17T22:56:37.786Z,17.97
2019-05-17T22:59:07.714Z,17.37
2019-05-17T23:01:37.584Z,17.43
2019-05-17T23:04:07.681Z,18.73
2019-05-17T23:06:37.937Z,17.93
2019-05-17T23:09:08.401Z,21.53
2019-05-17T23:11:38.275Z,19.33
2019-05-17T23:14:08.216Z,19.43
2019-05-17T23:16:50.521Z,18.57
2019-05-17T23:19:10.275Z,19.37
2019-05-17T23:21:40.487Z,19.37
2019-05-17T23:24:10.596Z,19.77
2019-05-17T23:26:40.523Z,18.63
2019-05-17T23:29:12.238Z,17.40
2019-05-17T23:31:42.155Z,18.30
2019-05-17T23:34:12.163Z,20.20
2019-05-17T23:36:42.245Z,17.93
2019-05-17T23:39:12.187Z,17.33
2019-05-17T23:41:42.096Z,16.97
2019-05-17T23:44:11.988Z,23.73
2019-05-17T23:46:42.023Z,20.00
2019-05-17T23:49:12.167Z,21.93
2019-05-17T23:51:42.305Z,20.63
2019-05-17T23:54:12.206Z,22.30
2019-05-17T23:56:42.195Z,22.10
2019-05-17T23:59:12.119Z,20.50
